Terminal Aerodrome Forecast
Issued by NWS

Home | Current Version | Previous Version | Text Only | Print | Product List | Glossary On
Versions: 1 2 3 4 5 6 7 8 9 10 11 12 13 14 15 16 17 18 19 20 21 22 23 24 25 26 27 28 29 30 31 32 33 34 35 36 37 38 39 40 41 42 43 44 45 46 47 48 49 50
000
FTUS43 KDDC 221720
TAFGCK
TAF
KGCK 221720Z 2218/2318 13010KT P6SM OVC007
     FM222000 16011G19KT P6SM BKN015
     FM222300 15009KT P6SM FEW035
     FM230400 14009KT P6SM BKN015
     FM230700 32007KT 1SM BR BKN003
     FM231500 07006KT P6SM BKN050=

USA.gov is the U.S. government's official web portal to all federal, state and local government web resources and services.